createdAt,value
2023-05-25T00:00:41.806Z,0.00
2023-05-25T00:01:36.536Z,0.00
2023-05-25T00:02:36.658Z,0.00
2023-05-25T00:03:36.620Z,0.00
2023-05-25T00:04:36.656Z,0.00
2023-05-25T00:05:36.580Z,0.00
2023-05-25T00:06:36.593Z,0.00
2023-05-25T00:07:36.612Z,0.00
2023-05-25T00:08:36.627Z,0.00
2023-05-25T00:09:36.642Z,0.00
2023-05-25T00:10:36.650Z,0.00
2023-05-25T00:11:36.662Z,0.00
2023-05-25T00:12:36.695Z,0.00
2023-05-25T00:13:36.694Z,0.00
2023-05-25T00:14:36.710Z,0.00
2023-05-25T00:15:36.727Z,0.00
2023-05-25T00:16:36.787Z,0.00
2023-05-25T00:17:36.761Z,0.00
2023-05-25T00:18:36.762Z,0.00
2023-05-25T00:19:36.780Z,0.00
2023-05-25T00:20:36.848Z,0.00
2023-05-25T00:21:36.804Z,0.00
2023-05-25T00:22:36.817Z,0.00
2023-05-25T00:23:36.830Z,0.00
2023-05-25T00:24:36.846Z,0.00
2023-05-25T00:25:36.863Z,0.00
2023-05-25T00:26:36.877Z,0.00
2023-05-25T00:27:36.891Z,0.00
2023-05-25T00:28:36.917Z,0.00
2023-05-25T00:29:36.929Z,0.00
2023-05-25T00:30:36.994Z,0.00
2023-05-25T00:31:37.089Z,0.00
2023-05-25T00:32:37.018Z,0.00
2023-05-25T00:33:36.990Z,0.00
2023-05-25T00:34:37.008Z,0.00
2023-05-25T00:35:37.001Z,0.00
2023-05-25T00:36:37.020Z,0.00
2023-05-25T00:37:37.036Z,0.00
2023-05-25T00:38:37.043Z,0.00
2023-05-25T00:39:37.057Z,0.00
2023-05-25T00:40:37.073Z,0.00
2023-05-25T00:41:37.086Z,0.00
2023-05-25T00:42:37.097Z,0.00
2023-05-25T00:43:37.118Z,0.00
2023-05-25T00:44:37.140Z,0.00
2023-05-25T00:45:37.152Z,0.00
2023-05-25T00:46:37.220Z,0.00
2023-05-25T00:47:37.192Z,0.00
2023-05-25T00:48:37.194Z,0.00
2023-05-25T00:49:37.219Z,0.00
2023-05-25T00:50:37.210Z,0.00
2023-05-25T00:51:37.224Z,0.00
2023-05-25T00:52:37.247Z,0.00
2023-05-25T00:53:37.253Z,0.00
2023-05-25T00:54:37.265Z,0.00
2023-05-25T00:55:37.279Z,0.00
2023-05-25T00:56:37.295Z,0.00
2023-05-25T00:57:37.312Z,0.00
2023-05-25T00:58:37.328Z,0.00
2023-05-25T00:59:37.356Z,0.00
2023-05-25T01:00:37.352Z,0.00
2023-05-25T01:01:37.373Z,0.00
2023-05-25T01:02:37.455Z,0.00
2023-05-25T01:03:37.454Z,0.00
2023-05-25T01:04:37.402Z,0.00
2023-05-25T01:05:37.418Z,0.00
2023-05-25T01:06:37.431Z,0.00
2023-05-25T01:07:37.449Z,0.00
2023-05-25T01:08:37.463Z,0.00
2023-05-25T01:09:37.471Z,0.00
2023-05-25T01:10:37.483Z,0.00
2023-05-25T01:11:37.500Z,0.00
2023-05-25T01:12:37.510Z,0.00
2023-05-25T01:13:37.535Z,0.00
2023-05-25T01:14:37.541Z,0.00
2023-05-25T01:15:37.553Z,0.00
2023-05-25T01:16:37.608Z,0.00
2023-05-25T01:17:37.587Z,0.00
2023-05-25T01:18:37.623Z,0.00
2023-05-25T01:19:37.611Z,0.00
2023-05-25T01:20:37.673Z,0.00
2023-05-25T01:21:37.638Z,0.00
2023-05-25T01:22:37.651Z,0.00
2023-05-25T01:23:37.683Z,0.00
2023-05-25T01:24:37.683Z,0.00
2023-05-25T01:25:37.710Z,0.00
2023-05-25T01:26:37.714Z,0.00
2023-05-25T01:27:37.717Z,0.00
2023-05-25T01:28:37.731Z,0.00
2023-05-25T01:29:37.755Z,0.00
2023-05-25T01:30:37.763Z,0.00
2023-05-25T01:31:37.786Z,0.00
2023-05-25T01:32:37.800Z,0.00
2023-05-25T01:33:37.824Z,0.00
2023-05-25T01:34:37.814Z,0.00
2023-05-25T01:35:37.822Z,0.00
2023-05-25T01:36:37.847Z,0.00
2023-05-25T01:37:37.855Z,0.00
2023-05-25T01:38:37.870Z,0.00
2023-05-25T01:39:37.880Z,0.00
2023-05-25T01:40:37.896Z,0.00
2023-05-25T01:41:37.918Z,0.00
2023-05-25T01:42:37.920Z,0.00
2023-05-25T01:43:37.933Z,0.00
2023-05-25T01:44:37.949Z,0.00
2023-05-25T01:45:37.999Z,0.00
2023-05-25T01:46:38.120Z,0.00
2023-05-25T01:47:38.020Z,0.00
2023-05-25T01:48:38.010Z,0.00
2023-05-25T01:49:38.015Z,0.00
2023-05-25T01:50:38.029Z,0.00
2023-05-25T01:51:38.043Z,0.00
2023-05-25T01:52:38.075Z,0.00
2023-05-25T01:53:38.077Z,0.00
2023-05-25T01:54:38.084Z,0.00
2023-05-25T01:55:38.095Z,0.00
2023-05-25T01:56:38.112Z,0.00
2023-05-25T01:57:38.134Z,0.00
2023-05-25T01:58:38.138Z,0.00
2023-05-25T01:59:38.167Z,0.00
2023-05-25T02:00:38.165Z,0.00
2023-05-25T02:01:38.197Z,0.00
2023-05-25T02:02:38.255Z,0.00
2023-05-25T02:03:38.207Z,0.00
2023-05-25T02:04:38.250Z,0.00
2023-05-25T02:05:38.240Z,0.00
2023-05-25T02:06:38.253Z,0.00
2023-05-25T02:07:38.257Z,0.00
2023-05-25T02:08:38.272Z,0.00
2023-05-25T02:09:38.283Z,0.00
2023-05-25T02:10:38.297Z,0.00
2023-05-25T02:11:38.333Z,0.00
2023-05-25T02:12:38.323Z,0.00
2023-05-25T02:13:38.347Z,4.00
2023-05-25T02:14:38.353Z,4.00
2023-05-25T02:15:38.377Z,4.00
2023-05-25T02:16:38.445Z,0.00
2023-05-25T02:17:38.472Z,0.00
2023-05-25T02:18:38.411Z,4.00
2023-05-25T02:19:38.440Z,4.00
2023-05-25T02:20:38.463Z,4.00
2023-05-25T02:21:38.448Z,4.00
2023-05-25T02:22:38.469Z,4.00
2023-05-25T02:23:38.477Z,8.00
2023-05-25T02:24:38.489Z,4.00
2023-05-25T02:25:38.499Z,8.00
2023-05-25T02:26:38.520Z,8.00
2023-05-25T02:27:38.535Z,12.00
2023-05-25T02:28:38.546Z,12.00
2023-05-25T02:29:38.555Z,12.00
2023-05-25T02:30:38.572Z,16.00
2023-05-25T02:31:38.626Z,16.00
2023-05-25T02:32:38.638Z,16.00
2023-05-25T02:33:38.615Z,20.00
2023-05-25T02:34:38.625Z,24.00
2023-05-25T02:35:38.637Z,24.00
2023-05-25T02:36:38.651Z,28.00
2023-05-25T02:37:38.666Z,32.00
2023-05-25T02:38:38.680Z,36.00
2023-05-25T02:39:38.690Z,36.00
2023-05-25T02:40:38.706Z,44.00
2023-05-25T02:41:38.732Z,52.00
2023-05-25T02:42:38.732Z,56.00
2023-05-25T02:43:38.750Z,60.00
2023-05-25T02:44:38.759Z,68.00
2023-05-25T02:45:38.771Z,76.00
2023-05-25T02:46:38.832Z,84.00
2023-05-25T02:47:38.848Z,92.00
2023-05-25T02:48:38.815Z,104.00
2023-05-25T02:49:38.848Z,108.00
2023-05-25T02:50:38.847Z,124.00
2023-05-25T02:51:38.852Z,136.00
2023-05-25T02:52:38.861Z,148.00
2023-05-25T02:53:38.899Z,160.00
2023-05-25T02:54:38.909Z,176.00
2023-05-25T02:55:38.908Z,188.00
2023-05-25T02:56:38.919Z,204.00
2023-05-25T02:57:39.008Z,224.00
2023-05-25T02:58:38.941Z,240.00
2023-05-25T02:59:38.958Z,256.00
2023-05-25T03:00:38.981Z,276.00
2023-05-25T03:01:38.983Z,300.00
2023-05-25T03:02:39.107Z,320.00
2023-05-25T03:03:39.049Z,344.00
2023-05-25T03:04:39.022Z,368.00
2023-05-25T03:05:39.041Z,392.00
2023-05-25T03:06:39.048Z,416.00
2023-05-25T03:07:39.060Z,444.00
2023-05-25T03:08:39.076Z,472.00
2023-05-25T03:09:39.088Z,500.00
2023-05-25T03:10:39.103Z,532.00
2023-05-25T03:11:39.130Z,560.00
2023-05-25T03:12:39.127Z,592.00
2023-05-25T03:13:39.161Z,628.00
2023-05-25T03:14:39.151Z,660.00
2023-05-25T03:15:39.166Z,692.00
2023-05-25T03:16:39.323Z,728.00
2023-05-25T03:17:39.265Z,760.00
2023-05-25T03:18:39.224Z,800.00
2023-05-25T03:19:39.222Z,832.00
2023-05-25T03:20:39.336Z,868.00
2023-05-25T03:21:39.257Z,908.00
2023-05-25T03:22:39.266Z,948.00
2023-05-25T03:23:39.292Z,988.00
2023-05-25T03:24:39.337Z,1028.00
2023-05-25T03:25:39.311Z,1068.00
2023-05-25T03:26:39.328Z,1108.00
2023-05-25T03:27:39.329Z,1148.00
2023-05-25T03:28:39.341Z,1192.00
2023-05-25T03:29:39.364Z,1236.00
2023-05-25T03:30:39.367Z,1272.00
2023-05-25T03:31:39.420Z,1316.00
2023-05-25T03:32:39.446Z,1360.00
2023-05-25T03:33:39.409Z,1404.00
2023-05-25T03:34:39.424Z,1444.00
2023-05-25T03:35:39.434Z,1488.00
2023-05-25T03:36:39.449Z,1528.00
2023-05-25T03:37:39.461Z,1572.00
2023-05-25T03:38:39.473Z,1616.00
2023-05-25T03:39:39.492Z,1660.00
2023-05-25T03:40:39.514Z,1708.00
2023-05-25T03:41:39.515Z,1752.00
2023-05-25T03:42:39.527Z,1796.00
2023-05-25T03:43:39.542Z,1840.00
2023-05-25T03:44:41.084Z,1884.00
2023-05-25T03:45:39.572Z,1932.00
2023-05-25T03:46:39.710Z,1980.00
2023-05-25T03:47:39.643Z,2024.00
2023-05-25T03:48:39.622Z,2076.00
2023-05-25T03:49:39.625Z,2124.00
2023-05-25T03:50:39.643Z,2168.00
2023-05-25T03:51:39.651Z,2212.00
2023-05-25T03:52:39.669Z,2256.00
2023-05-25T03:53:39.686Z,2300.00
2023-05-25T03:54:39.689Z,2352.00
2023-05-25T03:55:39.703Z,2396.00
2023-05-25T03:56:39.720Z,2444.00
2023-05-25T03:57:39.733Z,2492.00
2023-05-25T03:58:39.742Z,2544.00
2023-05-25T03:59:39.756Z,2600.00
2023-05-25T04:00:39.775Z,2656.00
2023-05-25T04:01:39.782Z,2708.00
2023-05-25T04:02:39.930Z,2760.00
2023-05-25T04:03:40.016Z,2812.00
2023-05-25T04:04:39.862Z,2864.00
2023-05-25T04:05:39.841Z,2912.00
2023-05-25T04:06:39.850Z,2960.00
2023-05-25T04:07:39.870Z,3000.00
2023-05-25T04:08:39.877Z,3044.00
2023-05-25T04:09:39.898Z,3100.00
2023-05-25T04:10:39.910Z,3128.00
2023-05-25T04:11:39.922Z,3132.00
2023-05-25T04:12:39.933Z,3164.00
2023-05-25T04:13:39.945Z,3192.00
2023-05-25T04:14:39.959Z,3220.00
2023-05-25T04:15:39.968Z,3268.00
2023-05-25T04:16:40.034Z,3312.00
2023-05-25T04:17:40.011Z,3380.00
2023-05-25T04:18:40.027Z,3440.00
2023-05-25T04:19:40.030Z,3504.00
2023-05-25T04:20:40.088Z,3624.00
2023-05-25T04:21:40.064Z,3660.00
2023-05-25T04:22:40.082Z,3692.00
2023-05-25T04:23:40.084Z,3724.00
2023-05-25T04:24:40.103Z,3756.00
2023-05-25T04:25:40.116Z,3796.00
2023-05-25T04:26:40.131Z,3868.00
2023-05-25T04:27:40.160Z,4036.00
2023-05-25T04:28:40.151Z,4168.00
2023-05-25T04:29:40.172Z,4248.00
2023-05-25T04:30:40.187Z,4232.00
2023-05-25T04:31:40.248Z,4344.00
2023-05-25T04:32:40.212Z,4408.00
2023-05-25T04:33:40.223Z,4388.00
2023-05-25T04:34:40.239Z,4440.00
2023-05-25T04:35:40.254Z,4476.00
2023-05-25T04:36:40.266Z,4420.00
2023-05-25T04:37:40.280Z,4340.00
2023-05-25T04:38:40.296Z,4288.00
2023-05-25T04:39:40.317Z,4280.00
2023-05-25T04:40:40.325Z,4288.00
2023-05-25T04:41:40.338Z,4316.00
2023-05-25T04:42:40.353Z,4344.00
2023-05-25T04:43:49.233Z,4376.00
2023-05-25T04:44:40.383Z,4404.00
2023-05-25T04:45:40.432Z,4416.00
2023-05-25T04:46:40.408Z,4452.00
2023-05-25T04:47:40.448Z,4488.00
2023-05-25T04:48:40.443Z,4520.00
2023-05-25T04:49:40.458Z,4552.00
2023-05-25T04:50:40.478Z,4580.00
2023-05-25T04:51:40.484Z,4632.00
2023-05-25T04:52:40.491Z,4712.00
2023-05-25T04:53:40.510Z,4772.00
2023-05-25T04:54:40.526Z,4780.00
2023-05-25T04:55:40.544Z,4812.00
2023-05-25T04:56:40.565Z,4844.00
2023-05-25T04:57:40.577Z,4868.00
2023-05-25T04:58:40.582Z,4900.00
2023-05-25T04:59:40.596Z,4932.00
2023-05-25T05:00:40.616Z,4988.00
2023-05-25T05:01:40.952Z,5020.00
2023-05-25T05:02:40.690Z,5060.00
2023-05-25T05:03:40.720Z,5108.00
2023-05-25T05:04:40.677Z,5168.00
2023-05-25T05:05:40.684Z,5216.00
2023-05-25T05:06:40.700Z,5256.00
2023-05-25T05:07:40.713Z,5296.00
2023-05-25T05:08:40.738Z,5340.00
2023-05-25T05:09:40.753Z,5392.00
2023-05-25T05:10:40.765Z,5492.00
2023-05-25T05:11:40.775Z,7288.00
2023-05-25T05:12:40.818Z,10788.00
2023-05-25T05:13:40.819Z,11672.00
2023-05-25T05:14:40.824Z,10256.00
2023-05-25T05:15:40.828Z,7576.00
2023-05-25T05:16:40.911Z,6988.00
2023-05-25T05:17:40.903Z,10784.00
2023-05-25T05:18:40.879Z,17984.00
2023-05-25T05:19:40.892Z,26240.00
2023-05-25T05:20:41.011Z,30528.00
2023-05-25T05:21:40.923Z,30464.00
2023-05-25T05:22:40.940Z,32736.00
2023-05-25T05:23:40.955Z,35008.00
2023-05-25T05:24:40.973Z,34752.00
2023-05-25T05:25:40.989Z,34400.00
2023-05-25T05:26:55.600Z,34976.00
2023-05-25T05:27:41.017Z,35104.00
2023-05-25T05:28:41.035Z,35264.00
2023-05-25T05:29:41.054Z,34912.00
2023-05-25T05:30:41.074Z,36288.00
2023-05-25T05:31:41.128Z,37664.00
2023-05-25T05:32:41.178Z,38336.00
2023-05-25T05:33:41.144Z,38912.00
2023-05-25T05:34:41.141Z,37568.00
2023-05-25T05:35:41.158Z,37536.00
2023-05-25T05:36:55.811Z,35904.00
2023-05-25T05:37:41.206Z,32416.00
2023-05-25T05:38:41.215Z,29056.00
2023-05-25T05:39:41.231Z,20288.00
2023-05-25T05:40:41.255Z,14440.00
2023-05-25T05:41:41.278Z,9688.00
2023-05-25T05:42:41.306Z,7948.00
2023-05-25T05:43:41.312Z,8240.00
2023-05-25T05:44:41.340Z,9164.00
2023-05-25T05:45:41.366Z,10744.00
2023-05-25T05:46:41.393Z,13744.00
2023-05-25T05:47:41.436Z,12172.00
2023-05-25T05:48:41.413Z,13128.00
2023-05-25T05:49:41.451Z,14300.00
2023-05-25T05:50:42.478Z,15100.00
2023-05-25T05:51:41.464Z,14008.00
2023-05-25T05:52:41.480Z,12944.00
2023-05-25T05:53:41.510Z,13396.00
2023-05-25T05:54:41.525Z,17824.00
2023-05-25T05:55:41.608Z,18432.00
2023-05-25T05:56:41.558Z,17696.00
2023-05-25T05:57:41.579Z,15384.00
2023-05-25T05:58:41.601Z,11004.00
2023-05-25T05:59:41.625Z,14628.00
2023-05-25T06:00:41.653Z,16432.00
2023-05-25T06:01:41.680Z,11784.00
2023-05-25T06:02:42.078Z,11116.00
2023-05-25T06:03:41.693Z,12008.00
2023-05-25T06:04:41.715Z,11392.00
2023-05-25T06:05:41.822Z,10384.00
2023-05-25T06:06:41.754Z,9604.00
2023-05-25T06:07:41.777Z,9800.00
2023-05-25T06:08:41.793Z,11628.00
2023-05-25T06:09:41.808Z,16200.00
2023-05-25T06:10:41.828Z,15924.00
2023-05-25T06:11:41.847Z,14776.00
2023-05-25T06:12:41.859Z,12280.00
2023-05-25T06:13:41.921Z,11160.00
2023-05-25T06:14:41.904Z,13428.00
2023-05-25T06:15:41.928Z,10876.00
2023-05-25T06:16:41.991Z,9644.00
2023-05-25T06:17:42.023Z,11260.00
2023-05-25T06:18:41.978Z,12588.00
2023-05-25T06:19:41.997Z,15140.00
2023-05-25T06:20:42.239Z,22592.00
2023-05-25T06:21:42.034Z,22208.00
2023-05-25T06:22:42.053Z,15520.00
2023-05-25T06:23:42.075Z,10472.00
2023-05-25T06:24:42.088Z,13136.00
2023-05-25T06:25:42.250Z,18560.00
2023-05-25T06:26:42.129Z,22688.00
2023-05-25T06:27:42.147Z,21120.00
2023-05-25T06:28:42.171Z,19744.00
2023-05-25T06:29:42.181Z,21760.00
2023-05-25T06:30:42.205Z,19680.00
2023-05-25T06:31:42.282Z,27136.00
2023-05-25T06:32:42.264Z,21120.00
2023-05-25T06:33:42.267Z,23296.00
2023-05-25T06:34:42.307Z,29632.00
2023-05-25T06:35:42.466Z,36544.00
2023-05-25T06:36:42.361Z,45888.00
2023-05-25T06:37:42.344Z,46304.00
2023-05-25T06:38:42.361Z,38208.00
2023-05-25T06:39:42.379Z,46976.00
2023-05-25T06:40:42.403Z,50528.00
2023-05-25T06:41:42.422Z,54016.00
2023-05-25T06:42:42.445Z,54400.00
2023-05-25T06:43:42.476Z,46944.00
2023-05-25T06:44:42.488Z,43776.00
2023-05-25T06:45:42.593Z,48256.00
2023-05-25T06:46:42.642Z,48832.00
2023-05-25T06:47:42.589Z,50816.00
2023-05-25T06:48:42.572Z,49984.00
2023-05-25T06:49:42.596Z,49632.00
2023-05-25T06:50:42.618Z,46848.00
2023-05-25T06:51:42.653Z,42688.00
2023-05-25T06:52:42.682Z,41568.00
2023-05-25T06:53:42.692Z,40352.00
2023-05-25T06:54:42.719Z,38720.00
2023-05-25T06:55:42.980Z,37984.00
2023-05-25T06:56:42.774Z,37536.00
2023-05-25T06:57:42.779Z,37504.00
2023-05-25T06:58:42.802Z,36896.00
2023-05-25T06:59:42.825Z,36448.00
2023-05-25T07:00:43.648Z,36000.00
2023-05-25T07:01:42.935Z,36256.00
2023-05-25T07:02:42.957Z,36608.00
2023-05-25T07:03:42.927Z,37280.00
2023-05-25T07:04:42.980Z,38016.00
2023-05-25T07:05:43.154Z,38240.00
2023-05-25T07:06:43.003Z,37664.00
2023-05-25T07:07:43.026Z,37472.00
2023-05-25T07:08:43.063Z,37376.00
2023-05-25T07:09:43.082Z,37568.00
2023-05-25T07:10:43.103Z,37920.00
2023-05-25T07:11:43.128Z,37504.00
2023-05-25T07:12:43.158Z,37472.00
2023-05-25T07:13:43.178Z,37536.00
2023-05-25T07:14:43.205Z,38144.00
2023-05-25T07:15:43.565Z,38080.00
2023-05-25T07:16:43.459Z,38336.00
2023-05-25T07:17:43.354Z,38752.00
2023-05-25T07:18:43.315Z,38944.00
2023-05-25T07:19:43.334Z,38816.00
2023-05-25T07:20:43.498Z,39296.00
2023-05-25T07:21:43.408Z,39232.00
2023-05-25T07:22:43.408Z,40192.00
2023-05-25T07:23:43.437Z,40384.00
2023-05-25T07:24:43.464Z,40640.00
2023-05-25T07:25:43.641Z,40768.00
2023-05-25T07:26:43.519Z,41216.00
2023-05-25T07:27:43.542Z,41472.00
2023-05-25T07:28:43.581Z,41664.00
2023-05-25T07:29:43.596Z,41696.00
2023-05-25T07:30:43.621Z,41760.00
2023-05-25T07:31:43.724Z,41984.00
2023-05-25T07:32:43.741Z,41824.00
2023-05-25T07:33:43.700Z,42048.00
2023-05-25T07:34:43.727Z,42400.00
2023-05-25T07:35:43.994Z,42912.00
2023-05-25T07:36:43.813Z,43744.00
2023-05-25T07:37:43.806Z,44032.00
2023-05-25T07:38:43.834Z,44128.00
2023-05-25T07:39:43.864Z,43936.00
2023-05-25T07:40:43.886Z,44000.00
2023-05-25T07:41:43.928Z,43936.00
2023-05-25T07:42:43.943Z,44256.00
2023-05-25T07:43:43.972Z,45280.00
2023-05-25T07:44:44.003Z,45376.00
2023-05-25T07:45:44.244Z,45760.00
2023-05-25T07:46:44.095Z,45056.00
2023-05-25T07:47:44.092Z,45792.00
2023-05-25T07:48:44.100Z,46496.00
2023-05-25T07:49:44.132Z,46752.00
2023-05-25T07:50:44.159Z,47232.00
2023-05-25T07:51:44.193Z,48320.00
2023-05-25T07:52:44.214Z,48352.00
2023-05-25T07:53:44.236Z,48448.00
2023-05-25T07:54:44.267Z,48256.00
2023-05-25T07:55:44.567Z,47968.00
2023-05-25T07:56:44.338Z,48768.00
2023-05-25T07:57:44.348Z,49696.00
2023-05-25T07:58:44.377Z,51136.00
2023-05-25T07:59:44.404Z,51808.00
2023-05-25T08:00:44.449Z,51936.00
2023-05-25T08:01:44.478Z,51648.00
2023-05-25T08:02:44.584Z,32960.00
2023-05-25T08:03:49.467Z,25440.00
2023-05-25T08:04:44.722Z,51616.00
2023-05-25T08:05:44.753Z,54560.00
2023-05-25T08:06:44.597Z,54624.00
2023-05-25T08:07:44.649Z,54944.00
2023-05-25T08:08:44.653Z,49952.00
2023-05-25T08:09:44.703Z,16668.00
2023-05-25T08:10:44.717Z,42208.00
2023-05-25T08:11:44.735Z,17108.00
2023-05-25T08:12:48.659Z,17888.00
2023-05-25T08:13:44.793Z,34688.00
2023-05-25T08:14:44.816Z,31456.00
2023-05-25T08:15:45.079Z,58368.00
2023-05-25T08:16:44.933Z,57472.00
2023-05-25T08:17:45.254Z,56576.00
2023-05-25T08:18:44.929Z,56736.00
2023-05-25T08:19:44.953Z,14304.00
2023-05-25T08:20:45.050Z,15380.00
2023-05-25T08:21:45.004Z,16748.00
2023-05-25T08:22:45.036Z,17024.00
2023-05-25T08:23:45.068Z,16404.00
2023-05-25T08:24:45.092Z,17920.00
2023-05-25T08:25:45.255Z,16620.00
2023-05-25T08:26:53.653Z,16476.00
2023-05-25T08:27:45.179Z,15124.00
2023-05-25T08:28:45.196Z,14476.00
2023-05-25T08:29:45.220Z,14672.00
2023-05-25T08:30:45.309Z,15488.00
2023-05-25T08:31:45.276Z,16504.00
2023-05-25T08:32:45.425Z,20224.00
2023-05-25T08:33:45.324Z,38560.00
2023-05-25T08:34:45.362Z,37664.00
2023-05-25T08:35:45.708Z,30336.00
2023-05-25T08:36:45.401Z,39360.00
2023-05-25T08:37:45.431Z,64960.00
2023-05-25T08:38:45.447Z,64544.00
2023-05-25T08:39:45.475Z,64384.00
2023-05-25T08:40:45.500Z,60384.00
2023-05-25T08:41:45.535Z,60960.00
2023-05-25T08:42:45.548Z,52352.00
2023-05-25T08:43:45.585Z,15320.00
2023-05-25T08:44:45.599Z,18912.00
2023-05-25T08:45:47.297Z,59072.00
2023-05-25T08:46:45.653Z,60544.00
2023-05-25T08:47:45.710Z,60704.00
2023-05-25T08:48:45.767Z,60992.00
2023-05-25T08:49:45.798Z,60608.00
2023-05-25T08:50:45.756Z,60320.00
2023-05-25T08:51:45.780Z,60896.00
2023-05-25T08:52:45.823Z,62240.00
2023-05-25T08:53:45.833Z,63584.00
2023-05-25T08:54:45.860Z,64480.00
2023-05-25T08:55:46.130Z,66176.00
2023-05-25T08:56:45.921Z,66592.00
2023-05-25T08:57:45.947Z,64192.00
2023-05-25T08:58:45.962Z,39296.00
2023-05-25T08:59:45.992Z,68544.00
2023-05-25T09:00:46.273Z,69440.00
2023-05-25T09:01:46.131Z,67968.00
2023-05-25T09:02:46.149Z,71776.00
2023-05-25T09:03:46.248Z,72736.00
2023-05-25T09:04:46.132Z,73760.00
2023-05-25T09:05:46.271Z,53056.00
2023-05-25T09:06:54.093Z,20320.00
2023-05-25T09:07:46.200Z,18624.00
2023-05-25T09:08:46.230Z,19072.00
2023-05-25T09:09:46.252Z,16636.00
2023-05-25T09:10:46.295Z,15932.00
2023-05-25T09:11:46.324Z,15596.00
2023-05-25T09:12:46.334Z,25728.00
2023-05-25T09:13:46.362Z,15068.00
2023-05-25T09:14:46.393Z,15064.00
2023-05-25T09:15:46.457Z,37312.00
2023-05-25T09:16:46.546Z,69376.00
2023-05-25T09:17:46.493Z,21152.00
2023-05-25T09:18:46.539Z,69024.00
2023-05-25T09:19:46.516Z,69280.00
2023-05-25T09:20:47.722Z,69504.00
2023-05-25T09:21:46.583Z,69504.00
2023-05-25T09:22:46.606Z,70784.00
2023-05-25T09:23:46.653Z,66912.00
2023-05-25T09:24:46.661Z,35904.00
2023-05-25T09:25:46.672Z,28384.00
2023-05-25T09:26:48.190Z,22656.00
2023-05-25T09:27:46.724Z,50464.00
2023-05-25T09:28:46.759Z,69536.00
2023-05-25T09:29:46.808Z,67520.00
2023-05-25T09:30:46.920Z,67744.00
2023-05-25T09:31:46.919Z,69760.00
2023-05-25T09:32:46.910Z,72192.00
2023-05-25T09:33:46.903Z,74592.00
2023-05-25T09:34:46.919Z,75360.00
2023-05-25T09:35:46.951Z,21472.00
2023-05-25T09:36:47.134Z,48064.00
2023-05-25T09:37:47.101Z,17824.00
2023-05-25T09:38:47.373Z,16356.00
2023-05-25T09:39:47.160Z,16216.00
2023-05-25T09:40:47.481Z,17728.00
2023-05-25T09:41:47.105Z,19616.00
2023-05-25T09:42:47.132Z,24288.00
2023-05-25T09:44:47.181Z,72640.00
2023-05-25T09:45:47.261Z,75744.00
2023-05-25T09:46:47.291Z,71680.00
2023-05-25T09:47:47.301Z,69600.00
2023-05-25T09:48:47.289Z,68896.00
2023-05-25T09:49:47.327Z,75616.00
2023-05-25T09:50:49.608Z,74208.00
2023-05-25T09:51:47.375Z,57728.00
2023-05-25T09:52:47.406Z,29152.00
2023-05-25T09:53:47.424Z,16220.00
2023-05-25T09:54:47.483Z,15280.00
2023-05-25T09:55:53.744Z,14972.00
2023-05-25T09:56:47.525Z,14768.00
2023-05-25T09:57:47.535Z,14272.00
2023-05-25T09:58:47.563Z,14588.00
2023-05-25T09:59:47.598Z,15924.00
2023-05-25T10:00:47.691Z,19808.00
2023-05-25T10:01:47.710Z,74240.00
2023-05-25T10:02:47.728Z,71872.00
2023-05-25T10:03:59.456Z,72000.00
2023-05-25T10:04:47.733Z,73056.00
2023-05-25T10:05:47.750Z,72480.00
2023-05-25T10:06:47.775Z,71424.00
2023-05-25T10:07:47.803Z,71424.00
2023-05-25T10:08:47.844Z,72096.00
2023-05-25T10:09:47.872Z,70208.00
2023-05-25T10:10:47.887Z,44704.00
2023-05-25T10:11:47.910Z,22720.00
2023-05-25T10:12:47.946Z,40832.00
2023-05-25T10:13:47.981Z,71648.00
2023-05-25T10:14:48.001Z,72704.00
2023-05-25T10:15:48.199Z,73216.00
2023-05-25T10:16:48.057Z,23904.00
2023-05-25T10:17:48.099Z,19552.00
2023-05-25T10:18:48.131Z,27040.00
2023-05-25T10:19:48.147Z,20896.00
2023-05-25T10:20:48.233Z,70432.00
2023-05-25T10:21:48.205Z,73760.00
2023-05-25T10:22:48.249Z,75392.00
2023-05-25T10:23:48.265Z,22240.00
2023-05-25T10:24:48.292Z,39008.00
2023-05-25T10:25:48.322Z,48704.00
2023-05-25T10:26:48.355Z,31488.00
2023-05-25T10:27:48.378Z,73504.00
2023-05-25T10:28:48.411Z,73408.00
2023-05-25T10:29:48.439Z,18848.00
2023-05-25T10:30:48.470Z,70048.00
2023-05-25T10:31:48.628Z,70720.00
2023-05-25T10:32:48.592Z,70144.00
2023-05-25T10:33:51.986Z,69856.00
2023-05-25T10:34:48.592Z,70880.00
2023-05-25T10:36:02.401Z,70048.00
2023-05-25T10:36:48.645Z,73952.00
2023-05-25T10:37:48.683Z,58784.00
2023-05-25T10:38:48.719Z,73088.00
2023-05-25T10:39:48.737Z,75008.00
2023-05-25T10:40:48.769Z,64096.00
2023-05-25T10:41:48.800Z,66592.00
2023-05-25T10:42:48.832Z,39136.00
2023-05-25T10:43:48.861Z,71360.00
2023-05-25T10:44:48.895Z,70848.00
2023-05-25T10:45:48.936Z,70240.00
2023-05-25T10:46:48.969Z,73184.00
2023-05-25T10:47:49.051Z,74144.00
2023-05-25T10:48:49.025Z,73280.00
2023-05-25T10:49:49.062Z,72960.00
2023-05-25T10:50:49.090Z,73728.00
2023-05-25T10:51:49.120Z,73344.00
2023-05-25T10:52:49.153Z,73632.00
2023-05-25T10:53:49.187Z,75232.00
2023-05-25T10:54:49.225Z,76960.00
2023-05-25T10:55:49.256Z,25248.00
2023-05-25T10:56:49.286Z,18912.00
2023-05-25T10:57:49.317Z,18624.00
2023-05-25T10:58:49.355Z,18048.00
2023-05-25T10:59:49.381Z,17760.00
2023-05-25T11:00:49.560Z,17568.00
2023-05-25T11:01:49.534Z,75584.00
2023-05-25T11:02:49.520Z,76800.00
2023-05-25T11:03:49.578Z,15108.00
2023-05-25T11:04:49.549Z,13540.00
2023-05-25T11:05:49.578Z,15324.00
2023-05-25T11:06:49.606Z,15272.00
2023-05-25T11:07:49.643Z,16400.00
2023-05-25T11:08:49.674Z,28480.00
2023-05-25T11:09:49.703Z,17336.00
2023-05-25T11:10:49.739Z,16108.00
2023-05-25T11:11:49.776Z,18080.00
2023-05-25T11:12:49.805Z,73120.00
2023-05-25T11:13:49.819Z,65536.00
2023-05-25T11:14:49.854Z,75808.00
2023-05-25T11:15:49.884Z,73728.00
2023-05-25T11:16:49.952Z,73152.00
2023-05-25T11:17:50.002Z,72928.00
2023-05-25T11:18:49.971Z,73344.00
2023-05-25T11:19:51.141Z,50688.00
2023-05-25T11:20:50.057Z,17760.00
2023-05-25T11:21:50.059Z,16656.00
2023-05-25T11:22:52.256Z,39360.00
2023-05-25T11:23:50.121Z,16488.00
2023-05-25T11:24:50.155Z,13016.00
2023-05-25T11:25:50.192Z,12492.00
2023-05-25T11:26:50.219Z,13272.00
2023-05-25T11:27:50.257Z,14676.00
2023-05-25T11:28:50.277Z,16984.00
2023-05-25T11:29:50.325Z,20608.00
2023-05-25T11:30:50.364Z,17952.00
2023-05-25T11:31:50.418Z,16240.00
2023-05-25T11:32:50.522Z,16976.00
2023-05-25T11:33:50.414Z,60672.00
2023-05-25T11:34:50.450Z,27552.00
2023-05-25T11:35:50.482Z,33248.00
2023-05-25T11:36:50.504Z,74688.00
2023-05-25T11:37:50.524Z,73472.00
2023-05-25T11:39:03.078Z,68096.00
2023-05-25T11:39:50.584Z,71520.00
2023-05-25T11:40:50.764Z,69632.00
2023-05-25T11:41:50.644Z,69088.00
2023-05-25T11:42:50.669Z,68544.00
2023-05-25T11:43:50.710Z,59552.00
2023-05-25T11:44:50.747Z,68672.00
2023-05-25T11:45:50.758Z,68864.00
2023-05-25T11:46:50.965Z,68864.00
2023-05-25T11:47:50.836Z,69248.00
2023-05-25T11:48:50.848Z,68576.00
2023-05-25T11:49:50.898Z,68160.00
2023-05-25T11:50:50.916Z,67936.00
2023-05-25T11:51:50.942Z,67616.00
2023-05-25T11:52:50.972Z,67520.00
2023-05-25T11:53:51.003Z,68352.00
2023-05-25T11:54:51.052Z,69184.00
2023-05-25T11:55:53.670Z,70752.00
2023-05-25T11:56:51.117Z,70048.00
2023-05-25T11:57:51.131Z,72640.00
2023-05-25T11:58:51.163Z,73760.00
2023-05-25T11:59:51.300Z,54592.00
2023-05-25T12:00:51.241Z,53376.00
2023-05-25T12:01:51.258Z,73184.00
2023-05-25T12:02:51.754Z,23264.00
2023-05-25T12:03:51.393Z,19712.00
2023-05-25T12:04:51.407Z,18304.00
2023-05-25T12:05:51.405Z,19584.00
2023-05-25T12:06:51.474Z,68480.00
2023-05-25T12:07:51.458Z,25664.00
2023-05-25T12:08:51.492Z,20672.00
2023-05-25T12:09:51.528Z,34816.00
2023-05-25T12:10:51.575Z,22400.00